Gregory, MI (48137)

7:17 AM EST on February 08, 2016 (GMT -0500)
Putnam Meadows | | Change Station
CLOSE
Current Station
Personal Weather Station
Location: Pinckney, MI
Elevation: 940 ft
Nearby Weather Stations

Elev 940 ft 42.48 °N, 84.00 °W | Updated 3 minutes ago

Overcast
Overcast
31.1 °F
Feels Like 31 °F
N
0.0
Wind Variable Wind from SW
Gusts 1.0 mph

Today
High -- | Low -- °F
--% Chance of Precip.
Yesterday
High -- | Low -- °F
Precip. -- in
Pressure 29.60 in
Visibility 10.0 miles
Clouds Scattered Clouds 10000 ft
Mostly Cloudy 12000 ft
Windchill 31 °F
Dew Point 29 °F
Humidity 90%
Rainfall 0.00 in
Snow Depth Not available.
7:42 AM 5:58 PM
Waning Crescent, 0% visible
METAR KOZW 081215Z AUTO 00000KT 10SM SCT100 BKN120 00/M01 A2960 RMK AO2 T00021010
Pressure 29.60 in
Visibility 10.0 miles
Clouds Scattered Clouds 10000 ft
Mostly Cloudy 12000 ft
Windchill 31 °F
Dew Point 29 °F
Humidity 90%
Rainfall 0.00 in
Snow Depth Not available.
7:42 AM 5:58 PM
Waning Crescent, 0% visible
METAR KOZW 081215Z AUTO 00000KT 10SM SCT100 BKN120 00/M01 A2960 RMK AO2 T00021010

10-Day Weather Forecast

Almanac

Astronomy

Feb. 08, 2016 Rise Set
Actual Time
Civil Twilight
Nautical Twilight
Astronomical Twilight
Moon
Length of Visible Light
Length of Day
Tomorrow will be .
, % of the Moon is Illuminated

Today's Extremes

State Highs State Lows

Community

WunderPhotos

Upload Photos

1,891,420 photos uploaded!

WunderBlog® & News

Nearby

Air Quality

  Air Quality AQ Index Pollutant
Not available.

Snow Depth

Station Depth Elevation

Earthquake Activity

City Distance Mag. Time & Date
Minimum magnitude displayed is 2.5.

Coastal Water Temperatures

Place Temperature

Stations

Nearby Weather Stations

Station Location Temp. Windchill Dew Point Humidity Wind Precip. Elev Updated Type
                   

Watches & Warnings

There are currently no watches in effect.